createdAt,value
2023-04-01T00:08:13.929Z,10.00
2023-04-01T00:18:19.808Z,9.90
2023-04-01T00:28:25.482Z,12.40
2023-04-01T00:38:31.232Z,11.60
2023-04-01T00:48:41.879Z,12.40
2023-04-01T00:58:52.870Z,12.00
2023-04-01T01:09:18.624Z,13.00
2023-04-01T01:19:49.404Z,12.90
2023-04-01T01:30:36.919Z,12.60
2023-04-01T01:40:46.483Z,14.60
2023-04-01T01:50:53.154Z,13.70
2023-04-01T02:01:02.117Z,16.00
2023-04-01T02:11:10.887Z,18.00
2023-04-01T02:21:17.541Z,17.40
2023-04-01T02:31:25.132Z,18.90
2023-04-01T02:41:31.170Z,16.30
2023-04-01T02:51:37.308Z,16.70
2023-04-01T03:01:43.153Z,13.60
2023-04-01T03:11:48.808Z,12.30
2023-04-01T03:21:54.600Z,12.20
2023-04-01T03:32:00.476Z,12.20
2023-04-01T03:42:07.683Z,11.50
2023-04-01T03:52:14.504Z,10.40
2023-04-01T04:02:20.772Z,9.10
2023-04-01T04:12:26.578Z,9.60
2023-04-01T04:22:32.286Z,10.60
2023-04-01T04:32:38.403Z,9.60
2023-04-01T04:42:44.238Z,9.90
2023-04-01T04:52:49.931Z,9.20
2023-04-01T05:02:56.253Z,9.70
2023-04-01T05:13:02.282Z,8.60
2023-04-01T05:23:08.177Z,8.30
2023-04-01T05:33:15.771Z,7.70
2023-04-01T05:53:25.872Z,7.50
2023-04-01T06:03:31.697Z,6.80
2023-04-01T06:13:55.764Z,7.60
2023-04-01T06:24:14.105Z,7.20
2023-04-01T06:34:42.775Z,7.70
2023-04-01T06:45:01.446Z,7.50
2023-04-01T06:55:23.059Z,7.00
2023-04-01T07:05:33.677Z,6.70
2023-04-01T07:15:43.204Z,7.30
2023-04-01T07:25:54.121Z,6.70
2023-04-01T07:36:05.326Z,7.00
2023-04-01T07:46:24.248Z,7.40
2023-04-01T07:56:38.726Z,6.50
2023-04-01T08:06:53.586Z,5.30
2023-04-01T08:17:04.708Z,5.10
2023-04-01T08:27:22.885Z,5.10
2023-04-01T08:37:32.417Z,7.70
2023-04-01T08:47:56.519Z,7.80
2023-04-01T08:58:30.497Z,8.00
2023-04-01T09:08:52.085Z,8.10
2023-04-01T09:19:21.351Z,10.70
2023-04-01T09:29:43.276Z,8.60
2023-04-01T09:40:03.645Z,8.00
2023-04-01T09:50:30.858Z,5.30
2023-04-01T10:01:04.293Z,6.60
2023-04-01T10:11:26.199Z,4.30
2023-04-01T10:22:09.148Z,4.60
2023-04-01T10:32:51.027Z,5.30
2023-04-01T10:43:39.319Z,3.40
2023-04-01T10:54:03.605Z,2.30
2023-04-01T11:04:48.790Z,3.20
2023-04-01T11:15:33.529Z,4.20
2023-04-01T11:26:05.829Z,3.30
2023-04-01T11:36:27.577Z,2.00
2023-04-01T11:46:42.595Z,2.90
2023-04-01T11:57:08.403Z,2.70
2023-04-01T12:07:25.190Z,3.50
2023-04-01T12:17:43.452Z,3.10
2023-04-01T12:28:03.617Z,2.60
2023-04-01T12:38:22.969Z,2.20
2023-04-01T12:49:10.559Z,2.50
2023-04-01T12:59:33.685Z,3.10
2023-04-01T13:09:52.064Z,3.20
2023-04-01T13:20:09.052Z,3.50
2023-04-01T13:30:29.927Z,3.20
2023-04-01T13:40:55.722Z,4.60
2023-04-01T13:51:21.195Z,4.40
2023-04-01T14:01:36.418Z,5.60
2023-04-01T14:11:49.107Z,6.60
2023-04-01T14:22:07.864Z,5.60
2023-04-01T14:32:44.005Z,6.40
2023-04-01T14:43:11.442Z,6.30
2023-04-01T14:53:31.375Z,7.30
2023-04-01T15:03:42.700Z,9.10
2023-04-01T15:14:24.399Z,10.70
2023-04-01T15:24:43.301Z,12.40
2023-04-01T15:35:01.381Z,17.00
2023-04-01T15:45:20.215Z,20.00
2023-04-01T15:55:30.762Z,22.90
2023-04-01T16:05:45.088Z,22.40
2023-04-01T16:16:02.175Z,21.50
2023-04-01T16:26:15.572Z,19.90
2023-04-01T16:36:30.516Z,17.10
2023-04-01T16:46:40.082Z,15.80
2023-04-01T16:56:52.512Z,16.00
2023-04-01T17:07:08.332Z,14.10
2023-04-01T17:17:26.557Z,13.50
2023-04-01T17:27:45.553Z,19.00
2023-04-01T17:38:02.273Z,16.30
2023-04-01T17:48:17.558Z,17.30
2023-04-01T17:58:30.594Z,20.00
2023-04-01T18:08:52.298Z,20.50
2023-04-01T18:19:04.934Z,20.60
2023-04-01T18:29:26.186Z,18.90
2023-04-01T18:39:39.245Z,20.90
2023-04-01T18:49:54.315Z,18.00
2023-04-01T19:00:06.738Z,19.70
2023-04-01T19:10:21.768Z,21.00
2023-04-01T19:20:33.548Z,17.60
2023-04-01T19:30:52.154Z,18.30
2023-04-01T19:41:06.678Z,16.00
2023-04-01T19:51:17.935Z,18.40
2023-04-01T20:01:41.639Z,23.20
2023-04-01T20:11:58.182Z,18.10
2023-04-01T20:22:07.565Z,24.60
2023-04-01T20:32:27.335Z,20.20
2023-04-01T20:42:53.622Z,23.90
2023-04-01T20:53:07.551Z,18.40
2023-04-01T21:03:26.328Z,14.40
2023-04-01T21:13:48.882Z,12.70
2023-04-01T21:24:07.184Z,17.10
2023-04-01T21:34:37.987Z,17.00
2023-04-01T21:44:52.894Z,12.80
2023-04-01T21:55:26.480Z,10.70
2023-04-01T22:05:37.805Z,12.90
2023-04-01T22:16:02.566Z,12.10
2023-04-01T22:26:17.396Z,11.00
2023-04-01T22:36:33.198Z,10.40
2023-04-01T22:46:55.435Z,9.30
2023-04-01T22:57:05.672Z,10.30
2023-04-01T23:07:48.056Z,8.80
2023-04-01T23:18:05.719Z,9.40
2023-04-01T23:28:38.329Z,9.40
2023-04-01T23:38:49.834Z,7.80
2023-04-01T23:48:56.402Z,8.90
2023-04-01T23:59:04.175Z,7.80
